Time;durP1;ratioP1;P1;durP2;ratioP2;P2;SDS_P1;SDS_P2;PMS_P1;PMS_P2;Temp;Humidity;BMP_temperature;BMP_pressure;BME280_temperature;BME280_humidity;BME280_pressure;Samples;Min_cycle;Max_cycle;Signal;HPM_P1;HPM_P2
2022/04/04 00:01:18;;;;;;;5.25;2.97;;;;;;;;;;5113499;28;20044;-75
2022/04/04 00:03:44;;;;;;;7.50;3.70;;;;;;;;;;5114617;28;20071;-76
2022/04/04 00:06:11;;;;;;;6.07;2.97;;;;;;;;;;5118232;28;20094;-76
2022/04/04 00:08:37;;;;;;;6.07;3.03;;;;;;;;;;5118451;28;20122;-75
2022/04/04 00:11:04;;;;;;;7.00;3.47;;;;;;;;;;5117895;28;20062;-75
2022/04/04 00:13:30;;;;;;;8.35;3.28;;;;;;;;;;5118589;28;20071;-75
2022/04/04 00:15:57;;;;;;;7.45;3.63;;;;;;;;;;5116706;28;20444;-75
2022/04/04 00:18:25;;;;;;;6.07;3.22;;;;;;;;;;5117118;28;20558;-75
2022/04/04 00:20:51;;;;;;;6.57;3.13;;;;;;;;;;5118149;28;20127;-75
2022/04/04 00:23:18;;;;;;;9.40;3.42;;;;;;;;;;5117982;28;20432;-75
2022/04/04 00:25:46;;;;;;;5.07;2.80;;;;;;;;;;5118155;28;20074;-75
2022/04/04 00:28:13;;;;;;;5.93;3.63;;;;;;;;;;5118049;28;20127;-75
2022/04/04 00:30:40;;;;;;;10.23;3.67;;;;;;;;;;5117770;28;20126;-75
2022/04/04 00:33:08;;;;;;;7.63;3.28;;;;;;;;;;5116848;28;20498;-75
2022/04/04 00:35:35;;;;;;;5.75;3.13;;;;;;;;;;5116011;28;20131;-75
2022/04/04 00:38:03;;;;;;;6.65;2.80;;;;;;;;;;5117698;28;20131;-75
2022/04/04 00:40:30;;;;;;;8.43;3.30;;;;;;;;;;5117771;28;20040;-75
2022/04/04 00:42:57;;;;;;;6.47;3.10;;;;;;;;;;5117748;28;20043;-75
2022/04/04 00:45:24;;;;;;;5.88;3.30;;;;;;;;;;5117750;28;20040;-75
2022/04/04 00:47:51;;;;;;;6.20;2.75;;;;;;;;;;5117668;28;20086;-75
2022/04/04 00:50:18;;;;;;;8.70;3.08;;;;;;;;;;5117401;28;20047;-75
2022/04/04 00:52:46;;;;;;;7.13;3.70;;;;;;;;;;5118090;28;20098;-75
2022/04/04 00:55:13;;;;;;;6.55;3.50;;;;;;;;;;5116817;28;20044;-75
2022/04/04 00:57:39;;;;;;;5.43;3.22;;;;;;;;;;5117172;28;20146;-75
2022/04/04 01:00:09;;;;;;;7.78;3.70;;;;;;;;;;5116268;28;20074;-75
2022/04/04 01:02:35;;;;;;;8.73;3.78;;;;;;;;;;5117664;28;20040;-75
2022/04/04 01:05:04;;;;;;;9.85;3.80;;;;;;;;;;5102081;22;20509;-75
2022/04/04 01:07:30;;;;;;;7.60;3.53;;;;;;;;;;5095522;28;20090;-75
2022/04/04 01:09:58;;;;;;;5.38;3.33;;;;;;;;;;5095621;28;20090;-75
2022/04/04 01:12:26;;;;;;;6.05;2.97;;;;;;;;;;5094592;28;20173;-75
2022/04/04 01:14:52;;;;;;;6.38;3.03;;;;;;;;;;5095263;28;20102;-75
2022/04/04 01:17:21;;;;;;;6.22;3.33;;;;;;;;;;5094454;28;20131;-75
2022/04/04 01:19:47;;;;;;;7.38;4.78;;;;;;;;;;5095711;28;20127;-75
2022/04/04 01:22:15;;;;;;;6.63;2.95;;;;;;;;;;5095683;28;20075;-75
2022/04/04 01:24:43;;;;;;;5.82;3.67;;;;;;;;;;5095629;28;20072;-75
2022/04/04 01:27:12;;;;;;;6.43;3.30;;;;;;;;;;5094813;28;20161;-75
2022/04/04 01:29:38;;;;;;;5.40;3.15;;;;;;;;;;5095599;28;20405;-75
2022/04/04 01:32:06;;;;;;;7.18;3.08;;;;;;;;;;5095640;28;20051;-76
2022/04/04 01:34:33;;;;;;;8.38;3.42;;;;;;;;;;5095729;28;20040;-75
2022/04/04 01:37:00;;;;;;;6.95;3.00;;;;;;;;;;5080867;28;20040;-75
2022/04/04 01:39:26;;;;;;;5.55;3.10;;;;;;;;;;5089819;28;20057;-75
2022/04/04 01:41:54;;;;;;;6.18;3.10;;;;;;;;;;5090007;28;20040;-75
2022/04/04 01:44:20;;;;;;;6.47;3.35;;;;;;;;;;5090599;28;20060;-75
2022/04/04 01:46:47;;;;;;;6.80;3.20;;;;;;;;;;5089731;28;20484;-75
2022/04/04 01:49:13;;;;;;;6.93;3.53;;;;;;;;;;5086129;28;20425;-75
2022/04/04 01:51:40;;;;;;;6.40;3.13;;;;;;;;;;5089646;28;20042;-75
2022/04/04 01:54:07;;;;;;;7.88;3.42;;;;;;;;;;5088628;28;20199;-75
2022/04/04 01:56:34;;;;;;;7.63;3.17;;;;;;;;;;5086247;28;20075;-75
2022/04/04 01:59:02;;;;;;;8.85;3.30;;;;;;;;;;5082556;28;20067;-75
2022/04/04 02:01:32;;;;;;;6.57;3.13;;;;;;;;;;5083533;28;20127;-75
2022/04/04 02:03:58;;;;;;;6.45;3.20;;;;;;;;;;5088309;28;20055;-75
2022/04/04 02:06:25;;;;;;;6.93;3.17;;;;;;;;;;5086623;28;20094;-75
2022/04/04 02:08:52;;;;;;;7.95;3.00;;;;;;;;;;5084798;28;20128;-75
2022/04/04 02:11:20;;;;;;;7.45;3.65;;;;;;;;;;5085436;28;20142;-75
2022/04/04 02:13:47;;;;;;;6.82;3.20;;;;;;;;;;5083088;28;20043;-75
2022/04/04 02:16:15;;;;;;;6.93;2.92;;;;;;;;;;5083969;28;20140;-75
2022/04/04 02:18:41;;;;;;;6.47;3.55;;;;;;;;;;5088980;28;20127;-75
2022/04/04 02:21:09;;;;;;;6.18;3.08;;;;;;;;;;5085674;28;20081;-75
2022/04/04 02:23:36;;;;;;;6.70;2.80;;;;;;;;;;5081094;28;20040;-75
2022/04/04 02:26:03;;;;;;;5.63;2.65;;;;;;;;;;5080642;28;20071;-75
2022/04/04 02:28:30;;;;;;;5.97;3.00;;;;;;;;;;5082943;28;20139;-75
2022/04/04 02:30:57;;;;;;;6.88;3.22;;;;;;;;;;5087598;28;20147;-75
2022/04/04 02:33:25;;;;;;;5.95;2.83;;;;;;;;;;5083639;28;20134;-75
2022/04/04 02:35:53;;;;;;;5.85;3.05;;;;;;;;;;5086210;28;20135;-75
2022/04/04 02:38:21;;;;;;;7.13;2.95;;;;;;;;;;5086603;28;20068;-75
2022/04/04 02:40:48;;;;;;;6.60;3.38;;;;;;;;;;5086872;28;20083;-75
2022/04/04 02:43:14;;;;;;;6.38;3.15;;;;;;;;;;5084406;28;20492;-75
2022/04/04 02:45:41;;;;;;;5.65;2.67;;;;;;;;;;5081237;28;20184;-75
2022/04/04 02:48:08;;;;;;;6.82;3.33;;;;;;;;;;5065007;28;20136;-75
2022/04/04 02:50:36;;;;;;;5.65;2.78;;;;;;;;;;5088562;28;20075;-75
2022/04/04 02:53:03;;;;;;;5.60;2.80;;;;;;;;;;5087571;28;20064;-75
2022/04/04 02:58:13;;;;;;;8.65;4.05;;;;;;;;;;5081279;28;20392;-75
2022/04/04 03:00:40;;;;;;;7.53;2.95;;;;;;;;;;5079694;28;20481;-75
2022/04/04 03:03:07;;;;;;;8.52;3.50;;;;;;;;;;5085305;28;20036;-75
2022/04/04 03:05:34;;;;;;;5.78;2.83;;;;;;;;;;5084404;28;20102;-75
2022/04/04 03:08:02;;;;;;;6.32;2.97;;;;;;;;;;5086056;28;20040;-75
2022/04/04 03:10:29;;;;;;;7.30;2.70;;;;;;;;;;5080386;28;20044;-75
2022/04/04 03:12:56;;;;;;;8.05;3.72;;;;;;;;;;5083222;28;20127;-75
2022/04/04 03:15:24;;;;;;;6.85;3.28;;;;;;;;;;5079825;28;20097;-75
2022/04/04 03:17:53;;;;;;;7.85;3.00;;;;;;;;;;5087575;28;20131;-75
2022/04/04 03:20:21;;;;;;;6.05;2.92;;;;;;;;;;5084385;28;20536;-75
2022/04/04 03:22:51;;;;;;;8.20;3.40;;;;;;;;;;5082650;28;20040;-75
2022/04/04 03:25:19;;;;;;;7.75;4.25;;;;;;;;;;5079260;28;20119;-75
2022/04/04 03:27:47;;;;;;;7.75;3.30;;;;;;;;;;5080081;28;20141;-75
2022/04/04 03:30:17;;;;;;;7.30;3.03;;;;;;;;;;5086411;28;20131;-75
2022/04/04 03:32:44;;;;;;;8.02;3.13;;;;;;;;;;5082026;28;20432;-75
2022/04/04 03:35:11;;;;;;;5.45;3.20;;;;;;;;;;5075387;28;20468;-77
2022/04/04 03:37:38;;;;;;;7.25;3.30;;;;;;;;;;5084135;28;20126;-77
2022/04/04 03:40:06;;;;;;;8.05;3.08;;;;;;;;;;5083741;28;20127;-78
2022/04/04 03:42:37;;;;;;;6.43;3.33;;;;;;;;;;5088997;28;20048;-77
2022/04/04 03:45:04;;;;;;;6.40;3.22;;;;;;;;;;5078715;28;20366;-76
2022/04/04 03:47:31;;;;;;;5.53;2.72;;;;;;;;;;5075672;28;20052;-76
2022/04/04 03:49:59;;;;;;;5.40;3.10;;;;;;;;;;5083238;28;20132;-76
2022/04/04 03:52:25;;;;;;;7.85;3.55;;;;;;;;;;5081511;28;20457;-76
2022/04/04 03:54:52;;;;;;;6.30;2.97;;;;;;;;;;5081204;28;20577;-77
2022/04/04 03:57:19;;;;;;;5.53;2.85;;;;;;;;;;5071202;28;20426;-76
2022/04/04 03:59:47;;;;;;;7.15;2.83;;;;;;;;;;5076359;28;20072;-76
2022/04/04 04:02:14;;;;;;;4.70;2.53;;;;;;;;;;5098735;28;20127;-77
2022/04/04 04:04:40;;;;;;;5.32;2.78;;;;;;;;;;5096951;28;20381;-77
2022/04/04 04:07:10;;;;;;;7.32;3.60;;;;;;;;;;5098059;28;20124;-77
2022/04/04 04:09:37;;;;;;;4.93;2.38;;;;;;;;;;5098063;28;20040;-77
2022/04/04 04:12:04;;;;;;;6.35;3.10;;;;;;;;;;5096828;28;20489;-77
2022/04/04 04:14:31;;;;;;;7.72;3.03;;;;;;;;;;5097076;28;20040;-77
2022/04/04 04:16:59;;;;;;;6.35;3.33;;;;;;;;;;5097844;28;20073;-76
2022/04/04 04:22:10;;;;;;;4.38;2.47;;;;;;;;;;5097088;28;20627;-77
2022/04/04 04:24:37;;;;;;;5.95;2.97;;;;;;;;;;5097771;28;20098;-77
2022/04/04 04:27:03;;;;;;;7.85;3.25;;;;;;;;;;5097092;28;20445;-77
2022/04/04 04:29:30;;;;;;;6.63;3.00;;;;;;;;;;5097307;28;20047;-77
2022/04/04 04:31:56;;;;;;;5.68;2.67;;;;;;;;;;5096335;28;20539;-76
2022/04/04 04:34:24;;;;;;;12.40;4.78;;;;;;;;;;5097570;28;20123;-77
2022/04/04 04:36:51;;;;;;;9.20;4.90;;;;;;;;;;5094121;28;20134;-76
2022/04/04 04:39:17;;;;;;;14.18;5.97;;;;;;;;;;5097392;28;20127;-76
2022/04/04 04:41:45;;;;;;;13.80;5.90;;;;;;;;;;5097126;28;20439;-77
2022/04/04 04:44:12;;;;;;;7.07;3.38;;;;;;;;;;5097294;28;20113;-76
2022/04/04 04:46:38;;;;;;;6.60;3.27;;;;;;;;;;5097283;28;20071;-76
2022/04/04 04:49:05;;;;;;;7.05;3.42;;;;;;;;;;5096693;28;20131;-76
2022/04/04 04:51:33;;;;;;;9.80;3.17;;;;;;;;;;5095542;28;20451;-76
2022/04/04 04:53:59;;;;;;;7.05;3.35;;;;;;;;;;5096915;28;20067;-77
2022/04/04 04:56:27;;;;;;;8.02;2.90;;;;;;;;;;5097105;28;20419;-77
2022/04/04 04:58:54;;;;;;;6.43;2.63;;;;;;;;;;5097056;28;20050;-76
2022/04/04 05:01:21;;;;;;;143.50;41.97;;;;;;;;;;5096806;28;20044;-77
2022/04/04 05:03:49;;;;;;;38.55;14.95;;;;;;;;;;5094440;28;20048;-77
2022/04/04 05:06:16;;;;;;;31.20;12.57;;;;;;;;;;5095899;28;20040;-76
2022/04/04 05:08:44;;;;;;;22.73;9.98;;;;;;;;;;5095767;28;20548;-76
2022/04/04 05:11:10;;;;;;;20.73;9.77;;;;;;;;;;5096788;28;20050;-76
2022/04/04 05:13:37;;;;;;;18.55;8.30;;;;;;;;;;5095645;28;20541;-76
2022/04/04 05:16:09;;;;;;;47.90;28.20;;;;;;;;;;5095870;28;20040;-76
2022/04/04 05:18:36;;;;;;;27.98;17.42;;;;;;;;;;5095491;28;20473;-76
2022/04/04 05:21:03;;;;;;;20.17;11.88;;;;;;;;;;5096367;28;20142;-76
2022/04/04 05:23:29;;;;;;;15.65;9.38;;;;;;;;;;5090804;28;20560;-76
2022/04/04 05:25:57;;;;;;;11.48;5.68;;;;;;;;;;5089691;28;20123;-76
2022/04/04 05:28:24;;;;;;;12.95;7.18;;;;;;;;;;5089547;28;20044;-76
2022/04/04 05:30:50;;;;;;;8.63;6.82;;;;;;;;;;5087777;28;20047;-76
2022/04/04 05:33:17;;;;;;;15.38;10.60;;;;;;;;;;5092178;28;20127;-76
2022/04/04 05:35:43;;;;;;;13.07;7.57;;;;;;;;;;5090952;28;20067;-76
2022/04/04 05:38:10;;;;;;;14.10;7.15;;;;;;;;;;5092629;28;20123;-76
2022/04/04 05:40:36;;;;;;;23.75;12.18;;;;;;;;;;5086941;28;20036;-76
2022/04/04 05:43:04;;;;;;;9.23;4.57;;;;;;;;;;5092375;28;20067;-76
2022/04/04 05:45:30;;;;;;;14.43;7.18;;;;;;;;;;5086616;28;20126;-76
2022/04/04 05:47:57;;;;;;;11.07;4.82;;;;;;;;;;5092120;28;20071;-76
2022/04/04 05:50:23;;;;;;;15.73;7.32;;;;;;;;;;5088469;28;20131;-76
2022/04/04 05:52:50;;;;;;;11.77;5.18;;;;;;;;;;5079079;28;20115;-76
2022/04/04 05:55:18;;;;;;;13.20;6.13;;;;;;;;;;5086433;28;20155;-76
2022/04/04 05:57:45;;;;;;;10.23;4.40;;;;;;;;;;5088285;28;20468;-76
2022/04/04 06:00:15;;;;;;;11.70;4.72;;;;;;;;;;5088172;28;20044;-76
2022/04/04 06:02:42;;;;;;;51.97;20.60;;;;;;;;;;5086505;28;20431;-76
2022/04/04 06:05:15;;;;;;;8.95;3.65;;;;;;;;;;5078424;28;20408;-76
2022/04/04 06:07:42;;;;;;;13.93;6.13;;;;;;;;;;5084269;28;20118;-75
2022/04/04 06:10:10;;;;;;;22.23;7.25;;;;;;;;;;5096106;28;20044;-77
2022/04/04 06:12:38;;;;;;;11.07;5.32;;;;;;;;;;5095837;28;20079;-77
2022/04/04 06:15:05;;;;;;;18.52;9.38;;;;;;;;;;5094800;28;20445;-76
2022/04/04 06:17:33;;;;;;;6.97;3.25;;;;;;;;;;5090393;28;20080;-76
2022/04/04 06:20:00;;;;;;;11.95;3.80;;;;;;;;;;5075423;28;20452;-77
2022/04/04 06:22:26;;;;;;;9.60;4.50;;;;;;;;;;5074504;28;20044;-76
2022/04/04 06:24:53;;;;;;;8.05;3.53;;;;;;;;;;5089950;28;20046;-76
2022/04/04 06:27:20;;;;;;;7.45;4.20;;;;;;;;;;5086125;28;20067;-77
2022/04/04 06:29:46;;;;;;;9.40;3.75;;;;;;;;;;5084881;28;20048;-76
2022/04/04 06:32:15;;;;;;;9.23;3.63;;;;;;;;;;5087045;28;20071;-75
2022/04/04 06:34:43;;;;;;;7.45;3.20;;;;;;;;;;5082105;28;20121;-74
2022/04/04 06:37:10;;;;;;;7.15;3.25;;;;;;;;;;5088825;28;20388;-75
2022/04/04 06:39:37;;;;;;;6.88;3.90;;;;;;;;;;5085583;28;20067;-74
2022/04/04 06:42:04;;;;;;;8.50;4.25;;;;;;;;;;5089233;28;20067;-76
2022/04/04 06:44:31;;;;;;;9.00;4.50;;;;;;;;;;5085612;28;20119;-74
2022/04/04 06:46:57;;;;;;;8.50;4.03;;;;;;;;;;5090882;28;20131;-74
2022/04/04 06:49:24;;;;;;;7.45;3.95;;;;;;;;;;5087154;28;20131;-75
2022/04/04 06:51:52;;;;;;;11.40;4.75;;;;;;;;;;5084375;28;20059;-74
2022/04/04 06:54:19;;;;;;;10.57;5.20;;;;;;;;;;5089574;28;20043;-75
2022/04/04 06:56:47;;;;;;;7.00;3.90;;;;;;;;;;5086353;28;20122;-74
2022/04/04 06:59:13;;;;;;;9.00;5.10;;;;;;;;;;5083731;28;20043;-75
2022/04/04 07:01:40;;;;;;;9.32;4.03;;;;;;;;;;5089365;28;20472;-75
2022/04/04 07:04:06;;;;;;;7.10;3.72;;;;;;;;;;5081945;28;20134;-74
2022/04/04 07:06:33;;;;;;;7.82;3.55;;;;;;;;;;5075892;28;20114;-75
2022/04/04 07:09:01;;;;;;;7.10;4.22;;;;;;;;;;5085579;28;20452;-74
2022/04/04 07:11:29;;;;;;;8.07;3.92;;;;;;;;;;5086437;28;20441;-74
2022/04/04 07:13:56;;;;;;;8.02;4.82;;;;;;;;;;5079573;28;20044;-74
2022/04/04 07:16:24;;;;;;;9.30;4.10;;;;;;;;;;5083760;28;20051;-74
2022/04/04 07:18:51;;;;;;;6.18;3.88;;;;;;;;;;5086499;28;20119;-74
2022/04/04 07:21:18;;;;;;;6.57;3.63;;;;;;;;;;5086558;28;20044;-75
2022/04/04 07:23:44;;;;;;;7.00;3.42;;;;;;;;;;5078714;28;20036;-74
2022/04/04 07:26:14;;;;;;;5.97;3.45;;;;;;;;;;5083152;28;20040;-74
2022/04/04 07:28:42;;;;;;;7.72;4.05;;;;;;;;;;5085890;28;20131;-75
2022/04/04 07:31:09;;;;;;;7.13;3.97;;;;;;;;;;5089881;28;20373;-75
2022/04/04 07:33:42;;;;;;;7.90;4.20;;;;;;;;;;5084001;28;20472;-76
2022/04/04 07:36:10;;;;;;;8.07;4.07;;;;;;;;;;5083614;28;20492;-75
2022/04/04 07:38:37;;;;;;;7.85;3.88;;;;;;;;;;5085118;28;20116;-75
2022/04/04 07:41:03;;;;;;;8.63;4.00;;;;;;;;;;5087179;28;20114;-75
2022/04/04 07:43:31;;;;;;;12.38;5.00;;;;;;;;;;5075188;28;20115;-75
2022/04/04 07:45:58;;;;;;;7.05;4.07;;;;;;;;;;5075342;28;20040;-75
2022/04/04 07:48:25;;;;;;;10.07;4.13;;;;;;;;;;5091580;28;20043;-75
2022/04/04 07:50:52;;;;;;;7.88;4.38;;;;;;;;;;5094412;28;20127;-75
2022/04/04 07:53:19;;;;;;;6.68;3.80;;;;;;;;;;5092199;28;20074;-75
2022/04/04 07:55:45;;;;;;;7.43;3.88;;;;;;;;;;5093805;28;20455;-76
2022/04/04 07:58:13;;;;;;;7.05;4.32;;;;;;;;;;5090955;28;20079;-75
2022/04/04 08:00:41;;;;;;;6.80;3.55;;;;;;;;;;5090204;28;20044;-76
2022/04/04 08:03:08;;;;;;;8.75;4.50;;;;;;;;;;5094444;28;20130;-75
2022/04/04 08:05:34;;;;;;;8.38;3.90;;;;;;;;;;5090363;28;20048;-75
2022/04/04 08:08:01;;;;;;;7.70;4.32;;;;;;;;;;5091826;28;20436;-75
2022/04/04 08:10:27;;;;;;;5.57;3.83;;;;;;;;;;5086217;28;20489;-75
2022/04/04 08:12:54;;;;;;;9.23;3.70;;;;;;;;;;5082800;28;20112;-75
2022/04/04 08:15:21;;;;;;;11.25;4.50;;;;;;;;;;5088411;28;20047;-76
2022/04/04 08:17:49;;;;;;;6.82;3.83;;;;;;;;;;5089062;28;20132;-76
2022/04/04 08:20:16;;;;;;;9.07;4.50;;;;;;;;;;5087431;28;20546;-74
2022/04/04 08:22:44;;;;;;;8.43;5.07;;;;;;;;;;5072819;28;20080;-75
2022/04/04 08:25:12;;;;;;;8.13;4.40;;;;;;;;;;5073669;28;20055;-75
2022/04/04 08:27:38;;;;;;;9.73;4.75;;;;;;;;;;5077175;28;20138;-76
2022/04/04 08:30:06;;;;;;;5.95;3.80;;;;;;;;;;5077957;28;20076;-75
2022/04/04 08:32:36;;;;;;;7.30;4.60;;;;;;;;;;5078384;28;20473;-75
2022/04/04 08:35:06;;;;;;;6.40;4.07;;;;;;;;;;5079110;28;20063;-75
2022/04/04 08:37:33;;;;;;;9.80;3.97;;;;;;;;;;5078111;28;20047;-75
2022/04/04 08:39:59;;;;;;;7.95;4.18;;;;;;;;;;5078266;28;20508;-75
2022/04/04 08:42:27;;;;;;;8.82;4.28;;;;;;;;;;5079667;28;20040;-75
2022/04/04 08:44:56;;;;;;;6.75;3.53;;;;;;;;;;5078848;28;20048;-75
2022/04/04 08:47:22;;;;;;;6.15;3.45;;;;;;;;;;5077317;28;20072;-75
2022/04/04 08:49:50;;;;;;;8.45;4.13;;;;;;;;;;5081395;28;20044;-75
2022/04/04 08:52:18;;;;;;;8.68;4.28;;;;;;;;;;5080953;28;20135;-75
2022/04/04 08:54:44;;;;;;;6.63;4.05;;;;;;;;;;5075954;28;20621;-75
2022/04/04 08:57:11;;;;;;;10.15;3.92;;;;;;;;;;5078656;28;20147;-75
2022/04/04 08:59:38;;;;;;;6.25;3.45;;;;;;;;;;5076475;28;20445;-75
2022/04/04 09:02:05;;;;;;;6.72;3.72;;;;;;;;;;5074764;28;20805;-75
2022/04/04 09:04:33;;;;;;;5.40;2.78;;;;;;;;;;5075602;28;20117;-75
2022/04/04 09:07:04;;;;;;;5.13;3.35;;;;;;;;;;5077915;28;20035;-75
2022/04/04 09:09:40;;;;;;;5.20;3.45;;;;;;;;;;5078973;28;20056;-75
2022/04/04 09:12:09;;;;;;;4.70;3.05;;;;;;;;;;5080460;28;20044;-75
2022/04/04 09:14:38;;;;;;;10.98;4.05;;;;;;;;;;5076980;28;20051;-75
2022/04/04 09:17:07;;;;;;;7.38;3.47;;;;;;;;;;5079087;28;20047;-75
2022/04/04 09:19:34;;;;;;;6.20;4.00;;;;;;;;;;5078367;28;20498;-75
2022/04/04 09:22:05;;;;;;;6.63;3.47;;;;;;;;;;5077438;28;20044;-75
2022/04/04 09:24:56;;;;;;;7.78;3.90;;;;;;;;;;5077326;28;20082;-75
2022/04/04 09:27:24;;;;;;;6.82;3.90;;;;;;;;;;5087070;28;20044;-75
2022/04/04 09:29:53;;;;;;;6.95;4.00;;;;;;;;;;5090763;28;20499;-75
2022/04/04 09:32:20;;;;;;;9.50;4.65;;;;;;;;;;5082809;28;20153;-76
2022/04/04 09:34:52;;;;;;;7.03;3.80;;;;;;;;;;5086174;28;20126;-75
2022/04/04 09:37:19;;;;;;;7.22;4.80;;;;;;;;;;5090028;28;20040;-76
2022/04/04 09:39:46;;;;;;;8.65;4.78;;;;;;;;;;5078320;28;20071;-76
2022/04/04 09:42:17;;;;;;;9.70;4.65;;;;;;;;;;5096151;28;20079;-75
2022/04/04 09:44:57;;;;;;;8.88;4.15;;;;;;;;;;5095976;28;20086;-76
2022/04/04 09:47:24;;;;;;;8.55;4.93;;;;;;;;;;5092048;28;20143;-75
2022/04/04 09:49:51;;;;;;;8.27;4.90;;;;;;;;;;5087982;28;20126;-75
2022/04/04 09:52:17;;;;;;;6.05;3.63;;;;;;;;;;5091116;28;20131;-75
2022/04/04 09:54:44;;;;;;;7.88;5.22;;;;;;;;;;5091623;28;20036;-75
2022/04/04 09:57:12;;;;;;;7.72;5.07;;;;;;;;;;5094910;28;20127;-76
2022/04/04 09:59:41;;;;;;;9.68;4.55;;;;;;;;;;5087729;28;20032;-75
2022/04/04 10:02:08;;;;;;;7.97;4.90;;;;;;;;;;5081841;28;20040;-76
2022/04/04 10:04:35;;;;;;;9.63;4.00;;;;;;;;;;5082640;28;20135;-76
2022/04/04 10:07:05;;;;;;;6.43;4.00;;;;;;;;;;5083491;28;20465;-76
2022/04/04 10:09:32;;;;;;;8.23;4.47;;;;;;;;;;5087664;28;20463;-76
2022/04/04 10:11:59;;;;;;;8.82;4.95;;;;;;;;;;5084313;28;20109;-76
2022/04/04 10:14:26;;;;;;;9.00;5.00;;;;;;;;;;5083827;28;20143;-76
2022/04/04 10:16:54;;;;;;;7.90;4.00;;;;;;;;;;5080143;28;20476;-75
2022/04/04 10:19:24;;;;;;;7.78;4.95;;;;;;;;;;5086918;28;20518;-76
2022/04/04 10:21:50;;;;;;;7.72;4.55;;;;;;;;;;5082798;28;20579;-76
2022/04/04 10:24:17;;;;;;;6.75;4.60;;;;;;;;;;5083729;28;20769;-76
2022/04/04 10:26:47;;;;;;;8.40;4.93;;;;;;;;;;5080494;28;20065;-76
2022/04/04 10:29:15;;;;;;;7.82;5.47;;;;;;;;;;5081138;28;20031;-76
2022/04/04 10:31:43;;;;;;;6.10;4.20;;;;;;;;;;5078685;28;20477;-76
2022/04/04 10:34:13;;;;;;;7.43;5.05;;;;;;;;;;5085470;28;20460;-76
2022/04/04 10:36:54;;;;;;;7.53;5.05;;;;;;;;;;5085158;28;20036;-76
2022/04/04 10:39:32;;;;;;;7.75;5.20;;;;;;;;;;5083144;28;20037;-76
2022/04/04 10:41:58;;;;;;;8.85;4.95;;;;;;;;;;5078344;28;20115;-75
2022/04/04 10:44:46;;;;;;;6.90;4.55;;;;;;;;;;5082216;28;20386;-76
2022/04/04 10:47:20;;;;;;;7.22;4.47;;;;;;;;;;5078586;28;20131;-76
2022/04/04 10:49:49;;;;;;;8.70;4.97;;;;;;;;;;5081102;28;20062;-76
2022/04/04 10:52:18;;;;;;;8.30;4.93;;;;;;;;;;5079627;28;20159;-76
2022/04/04 10:54:45;;;;;;;6.97;4.55;;;;;;;;;;5078865;28;20503;-77
2022/04/04 10:57:16;;;;;;;7.00;4.60;;;;;;;;;;5084992;28;20139;-76
2022/04/04 10:59:45;;;;;;;8.02;4.78;;;;;;;;;;5086389;28;20134;-76
2022/04/04 11:02:14;;;;;;;6.68;4.25;;;;;;;;;;5086319;28;20138;-76
2022/04/04 11:07:38;;;;;;;9.40;5.22;;;;;;;;;;5079783;28;20046;-76
2022/04/04 11:07:38;;;;;;;9.00;5.20;;;;;;;;;;5083838;28;20054;-76
2022/04/04 11:10:12;;;;;;;8.80;5.07;;;;;;;;;;5085893;28;20048;-76
2022/04/04 11:12:57;;;;;;;8.52;4.93;;;;;;;;;;5076539;28;20124;-76
2022/04/04 11:15:43;;;;;;;7.53;4.90;;;;;;;;;;5081140;28;20101;-76
2022/04/04 11:18:10;;;;;;;6.83;4.90;;;;;;;;;;5081236;28;20082;-77
2022/04/04 11:20:43;;;;;;;8.10;5.35;;;;;;;;;;5084105;28;20123;-76
2022/04/04 11:23:11;;;;;;;6.88;4.72;;;;;;;;;;5079902;28;20043;-76
2022/04/04 11:25:48;;;;;;;6.50;4.55;;;;;;;;;;5085335;28;20146;-76
2022/04/04 11:28:15;;;;;;;8.07;5.32;;;;;;;;;;5085231;28;20040;-76
2022/04/04 11:30:42;;;;;;;7.05;4.55;;;;;;;;;;5082697;28;20044;-76
2022/04/04 11:33:12;;;;;;;7.40;4.80;;;;;;;;;;5079471;28;20036;-76
2022/04/04 11:35:39;;;;;;;8.38;4.30;;;;;;;;;;5085496;28;20107;-76
2022/04/04 11:38:07;;;;;;;9.38;5.75;;;;;;;;;;5085305;28;20131;-76
2022/04/04 11:40:37;;;;;;;7.55;5.00;;;;;;;;;;5082284;28;20036;-76
2022/04/04 11:43:06;;;;;;;8.45;4.90;;;;;;;;;;5071492;28;20041;-76
2022/04/04 11:45:36;;;;;;;10.10;5.13;;;;;;;;;;5083170;28;20044;-76
2022/04/04 11:48:06;;;;;;;9.23;5.00;;;;;;;;;;5084119;28;20043;-76
2022/04/04 11:50:34;;;;;;;8.35;5.05;;;;;;;;;;5078118;28;20504;-76
2022/04/04 11:53:02;;;;;;;8.73;4.75;;;;;;;;;;5079219;28;20370;-76
2022/04/04 11:55:30;;;;;;;6.97;4.57;;;;;;;;;;5085542;28;20453;-76
2022/04/04 11:58:00;;;;;;;9.15;5.60;;;;;;;;;;5084597;28;20554;-76
2022/04/04 12:00:28;;;;;;;8.95;5.00;;;;;;;;;;5072607;28;20072;-76
2022/04/04 12:02:55;;;;;;;8.82;5.13;;;;;;;;;;5085394;28;20132;-76
2022/04/04 12:05:34;;;;;;;7.78;5.28;;;;;;;;;;5074867;28;20083;-76
2022/04/04 12:08:02;;;;;;;8.10;5.40;;;;;;;;;;5086702;28;20439;-76
2022/04/04 12:10:35;;;;;;;8.68;5.45;;;;;;;;;;5081847;28;20046;-76
2022/04/04 12:13:04;;;;;;;9.75;5.80;;;;;;;;;;5079130;28;20036;-76
2022/04/04 12:15:32;;;;;;;10.95;5.70;;;;;;;;;;5080947;28;20045;-76
2022/04/04 12:17:59;;;;;;;7.97;5.68;;;;;;;;;;5083436;28;20123;-76
2022/04/04 12:20:26;;;;;;;7.68;4.95;;;;;;;;;;5088498;28;20083;-76
2022/04/04 12:25:45;;;;;;;8.02;5.95;;;;;;;;;;5082409;28;20113;-77
2022/04/04 12:28:22;;;;;;;7.32;4.97;;;;;;;;;;5082391;28;20463;-76
2022/04/04 12:30:49;;;;;;;9.82;5.60;;;;;;;;;;5080712;28;20122;-76
2022/04/04 12:33:16;;;;;;;7.53;5.30;;;;;;;;;;5077999;28;20043;-77
2022/04/04 12:35:44;;;;;;;8.98;5.35;;;;;;;;;;5089444;28;20127;-77
2022/04/04 12:38:11;;;;;;;9.52;5.28;;;;;;;;;;5087688;28;20155;-76
2022/04/04 12:40:39;;;;;;;9.75;5.70;;;;;;;;;;5089809;28;20226;-76
2022/04/04 12:43:07;;;;;;;8.15;4.95;;;;;;;;;;5089338;28;20040;-76
2022/04/04 12:45:47;;;;;;;7.78;5.10;;;;;;;;;;5083549;28;20076;-76
2022/04/04 12:48:14;;;;;;;9.02;5.60;;;;;;;;;;5082543;28;20513;-77
2022/04/04 12:50:43;;;;;;;9.05;6.45;;;;;;;;;;5084740;28;20633;-76
2022/04/04 12:53:11;;;;;;;8.18;5.47;;;;;;;;;;5093487;28;20127;-76
2022/04/04 12:55:38;;;;;;;7.57;5.45;;;;;;;;;;5096144;28;20116;-76
2022/04/04 12:58:20;;;;;;;8.18;5.68;;;;;;;;;;5080054;28;20699;-76
2022/04/04 13:00:49;;;;;;;8.63;5.63;;;;;;;;;;5083177;28;20068;-76
2022/04/04 13:03:23;;;;;;;8.35;5.80;;;;;;;;;;5088732;28;20389;-76
2022/04/04 13:05:52;;;;;;;8.77;5.78;;;;;;;;;;5067630;28;20051;-76
2022/04/04 13:08:20;;;;;;;7.28;5.25;;;;;;;;;;5081715;28;20043;-76
2022/04/04 13:11:02;;;;;;;7.35;5.03;;;;;;;;;;5087929;28;20060;-76
2022/04/04 13:13:28;;;;;;;8.23;5.78;;;;;;;;;;5089025;28;20040;-76
2022/04/04 13:15:56;;;;;;;10.65;5.75;;;;;;;;;;5086344;28;20032;-76
2022/04/04 13:18:23;;;;;;;8.20;5.38;;;;;;;;;;5086538;28;20047;-76
2022/04/04 13:20:50;;;;;;;7.45;5.18;;;;;;;;;;5089594;28;20046;-77
2022/04/04 13:23:16;;;;;;;8.02;5.78;;;;;;;;;;5088097;28;20147;-76
2022/04/04 13:25:44;;;;;;;9.48;5.90;;;;;;;;;;5088681;28;20464;-77
2022/04/04 13:28:11;;;;;;;8.05;5.85;;;;;;;;;;5088747;28;20139;-76
2022/04/04 13:30:38;;;;;;;9.32;5.97;;;;;;;;;;5088637;28;20055;-76
2022/04/04 13:33:06;;;;;;;9.35;6.47;;;;;;;;;;5085515;28;20032;-77
2022/04/04 13:35:33;;;;;;;9.23;6.07;;;;;;;;;;5088386;28;20135;-77
2022/04/04 13:37:59;;;;;;;11.10;7.05;;;;;;;;;;5087897;28;20138;-76
2022/04/04 13:40:26;;;;;;;8.80;5.95;;;;;;;;;;5088532;28;20044;-77
2022/04/04 13:42:52;;;;;;;10.60;6.22;;;;;;;;;;5089886;28;20460;-77
2022/04/04 13:45:19;;;;;;;9.90;6.10;;;;;;;;;;5092512;28;20075;-76
2022/04/04 13:47:45;;;;;;;13.00;7.35;;;;;;;;;;5092737;28;20123;-76
2022/04/04 13:50:13;;;;;;;10.10;6.95;;;;;;;;;;5078800;28;20123;-76
2022/04/04 13:52:40;;;;;;;10.65;6.43;;;;;;;;;;5091326;28;20123;-76
2022/04/04 13:55:08;;;;;;;8.88;6.40;;;;;;;;;;5084983;28;20048;-76
2022/04/04 13:57:35;;;;;;;10.10;6.07;;;;;;;;;;5088529;28;20400;-77
2022/04/04 14:00:01;;;;;;;9.32;6.13;;;;;;;;;;5081059;28;20119;-76
2022/04/04 14:02:28;;;;;;;8.10;5.80;;;;;;;;;;5087068;28;20032;-76
2022/04/04 14:04:55;;;;;;;8.52;5.78;;;;;;;;;;5085707;28;20126;-76
2022/04/04 14:07:22;;;;;;;8.57;5.50;;;;;;;;;;5087396;28;20135;-76
2022/04/04 14:09:49;;;;;;;9.25;6.22;;;;;;;;;;5088280;28;20131;-77
2022/04/04 14:12:17;;;;;;;8.85;6.20;;;;;;;;;;5086879;28;20044;-76
2022/04/04 14:14:43;;;;;;;8.02;6.00;;;;;;;;;;5086035;28;20039;-77
2022/04/04 14:17:11;;;;;;;9.05;5.82;;;;;;;;;;5086215;28;20048;-76
2022/04/04 14:19:38;;;;;;;10.88;6.32;;;;;;;;;;5078229;28;20041;-76
2022/04/04 14:22:04;;;;;;;10.25;6.55;;;;;;;;;;5070057;28;20135;-77
2022/04/04 14:24:32;;;;;;;16.77;7.18;;;;;;;;;;5086728;28;20052;-77
2022/04/04 14:26:59;;;;;;;8.32;6.70;;;;;;;;;;5085453;28;20672;-77
2022/04/04 14:29:25;;;;;;;8.82;5.85;;;;;;;;;;5084867;28;20046;-76
2022/04/04 14:31:52;;;;;;;8.18;6.22;;;;;;;;;;5086731;28;20088;-77
2022/04/04 14:34:19;;;;;;;8.25;5.72;;;;;;;;;;5083523;28;20048;-77
2022/04/04 14:36:47;;;;;;;11.82;6.65;;;;;;;;;;5086965;28;20044;-77
2022/04/04 14:39:14;;;;;;;8.20;5.47;;;;;;;;;;5082996;28;20094;-77
2022/04/04 14:41:42;;;;;;;11.57;6.07;;;;;;;;;;5086933;28;20150;-77
2022/04/04 14:44:09;;;;;;;9.23;5.43;;;;;;;;;;5087651;28;20044;-77
2022/04/04 14:46:36;;;;;;;13.10;7.93;;;;;;;;;;5077583;28;20577;-77
2022/04/04 14:49:03;;;;;;;8.50;6.15;;;;;;;;;;5087080;28;20040;-77
2022/04/04 14:51:31;;;;;;;9.20;6.47;;;;;;;;;;5087210;28;20132;-77
2022/04/04 14:53:58;;;;;;;9.75;6.05;;;;;;;;;;5087339;28;20055;-77